EDDM/MUC METAR and TAF weather

Enter ICAO airport designator
Station Type Date Time Source
EDDM METAR 2018/04/19 13:20 UTC NOAA

EDDM 191320Z 07011KT 020V100 CAVOK 23/06 Q1028 NOSIG


Station Type Date Time Source
EDDM Decoded METAR 2018/04/19 13:20 UTC NOAA

Munchen, Germany (EDDM) 48-21N 011-47E
Apr 19, 2018 - 09:20 AM EDT / 2018.04.19 1320 UTC
Wind: from the ENE (070 degrees) at 13 MPH (11 KT) (direction variable):0
Visibility: greater than 7 mile(s):0
Temperature: 73 F (23 C)
Dew Point: 42 F (6 C)
Relative Humidity: 33%
Pressure (altimeter): 30.36 in. Hg (1028 hPa)
ob: EDDM 191320Z 07011KT 020V100 CAVOK 23/06 Q1028 NOSIG
cycle: 13

Station Type Date Time Source
EDDM TAF 2018/04/19 12:27 UTC NOAA

TAF EDDM 191100Z 1912/2018 09012KT CAVOK
BECMG 1916/1918 06005KT


Example: see airport list